Farmer, Washington
Current Conditions -  °F | °C
As of 7:53 AM on Friday 24 Oct 2014 (Local Time) from KEPH Reporting Station
Clear Clear  
Wind Chill: 36°   Ceiling: Unl
Heat Index: 41°   Visibility: 10mi
Dew Point: 38°   Wind: 7mph
Humidity: 89%   Direction: 360°N
Pressure: 30.06"   Gusts: NA
Location:  47.6257°N, 119.744°W
Report Text: KEPH 241453Z AUTO 36006KT 10SM CLR 05/03 A3006 RMK AO2 SLP184 T00500033 51012
Loading
Personal Weather Stations






























Interactive Weather Map
Tropical Storm Tracking
New forecast layout! Learn more

10-Day Weather Forecast

Advertisements
Track Severe Weather on mobile